Weather at Searcy Municipal Airport

Public forecast

Using degrees Fahrenheit for public forecast. Weather courtesy of forecast.io.

Current aviation weather report (METAR) for Searcy Municipal Airport

Retrieved 2021/06/13 15:56 UTC (32 minutes ago):

KSRC 131556Z AUTO 04007KT 10SM CLR 32/24 A2997 RMK AO2 SLP145 T03170244 PNO

Closest aviation forecast (TAF) to Searcy Municipal Airport

Closest forecast is Little Rock Air Force Base, 26.9 nm (49.7 km) SW. Retrieved 2021/06/13 15:42 UTC (46 minutes ago):

TAF KLRF 131500Z 1315/1421 02012KT 9999 SCT035 QNH2988INS TX36/1320Z TN22/1411Z